sensor_id;sensor_type;location;lat;lon;timestamp;temperature;humidity
10889;DHT22;5497;51.388;6.780;2023-05-07T00:01:12;15.00;99.90
10889;DHT22;5497;51.388;6.780;2023-05-07T00:03:39;14.90;99.90
10889;DHT22;5497;51.388;6.780;2023-05-07T00:08:33;14.90;99.90
10889;DHT22;5497;51.388;6.780;2023-05-07T00:28:13;14.80;99.90
10889;DHT22;5497;51.388;6.780;2023-05-07T00:45:25;14.50;99.90
10889;DHT22;5497;51.388;6.780;2023-05-07T00:55:14;14.40;99.90
10889;DHT22;5497;51.388;6.780;2023-05-07T01:02:38;14.20;99.90
10889;DHT22;5497;51.388;6.780;2023-05-07T01:14:54;13.80;99.90
10889;DHT22;5497;51.388;6.780;2023-05-07T01:22:24;13.80;99.90
10889;DHT22;5497;51.388;6.780;2023-05-07T01:24:53;13.70;99.90
10889;DHT22;5497;51.388;6.780;2023-05-07T01:51:57;13.60;99.90
10889;DHT22;5497;51.388;6.780;2023-05-07T02:01:48;13.80;99.90
10889;DHT22;5497;51.388;6.780;2023-05-07T02:09:11;13.80;99.90
10889;DHT22;5497;51.388;6.780;2023-05-07T02:11:42;13.80;99.90
10889;DHT22;5497;51.388;6.780;2023-05-07T02:16:36;13.70;99.90
10889;DHT22;5497;51.388;6.780;2023-05-07T02:26:27;13.60;99.90
10889;DHT22;5497;51.388;6.780;2023-05-07T02:41:28;13.40;99.90
10889;DHT22;5497;51.388;6.780;2023-05-07T02:56:21;13.30;99.90
10889;DHT22;5497;51.388;6.780;2023-05-07T03:03:56;13.20;99.90
10889;DHT22;5497;51.388;6.780;2023-05-07T03:06:24;13.20;99.90
10889;DHT22;5497;51.388;6.780;2023-05-07T03:08:51;13.20;99.90
10889;DHT22;5497;51.388;6.780;2023-05-07T03:11:18;13.30;99.90
10889;DHT22;5497;51.388;6.780;2023-05-07T03:18:41;13.20;99.90
10889;DHT22;5497;51.388;6.780;2023-05-07T03:33:32;13.20;99.90
10889;DHT22;5497;51.388;6.780;2023-05-07T03:38:27;13.20;99.90
10889;DHT22;5497;51.388;6.780;2023-05-07T03:40:54;13.20;99.90
10889;DHT22;5497;51.388;6.780;2023-05-07T03:43:21;13.20;99.90
10889;DHT22;5497;51.388;6.780;2023-05-07T03:53:23;13.20;99.90
10889;DHT22;5497;51.388;6.780;2023-05-07T03:58:18;13.20;99.90
10889;DHT22;5497;51.388;6.780;2023-05-07T04:00:46;13.20;99.90
10889;DHT22;5497;51.388;6.780;2023-05-07T04:03:26;13.20;99.90
10889;DHT22;5497;51.388;6.780;2023-05-07T04:13:21;13.30;99.90
10889;DHT22;5497;51.388;6.780;2023-05-07T04:18:18;13.30;99.90
10889;DHT22;5497;51.388;6.780;2023-05-07T04:23:15;13.40;99.90
10889;DHT22;5497;51.388;6.780;2023-05-07T04:38:17;13.50;99.90
10889;DHT22;5497;51.388;6.780;2023-05-07T04:50:46;13.80;99.90
10889;DHT22;5497;51.388;6.780;2023-05-07T04:55:44;14.00;99.90
10889;DHT22;5497;51.388;6.780;2023-05-07T05:05:37;14.50;99.90
10889;DHT22;5497;51.388;6.780;2023-05-07T05:10:34;14.60;99.90
10889;DHT22;5497;51.388;6.780;2023-05-07T05:13:02;14.70;99.90
10889;DHT22;5497;51.388;6.780;2023-05-07T05:22:53;15.10;99.90
10889;DHT22;5497;51.388;6.780;2023-05-07T05:25:20;15.10;99.90
10889;DHT22;5497;51.388;6.780;2023-05-07T05:27:47;15.30;99.90
10889;DHT22;5497;51.388;6.780;2023-05-07T05:37:42;15.50;99.90
10889;DHT22;5497;51.388;6.780;2023-05-07T05:40:09;15.60;99.90
10889;DHT22;5497;51.388;6.780;2023-05-07T05:45:03;15.80;99.90
10889;DHT22;5497;51.388;6.780;2023-05-07T05:47:33;16.00;99.90
10889;DHT22;5497;51.388;6.780;2023-05-07T05:50:01;16.40;99.90
10889;DHT22;5497;51.388;6.780;2023-05-07T05:52:30;16.70;99.90
10889;DHT22;5497;51.388;6.780;2023-05-07T06:07:20;18.20;99.90
10889;DHT22;5497;51.388;6.780;2023-05-07T06:09:49;18.40;99.90
10889;DHT22;5497;51.388;6.780;2023-05-07T06:14:47;18.60;99.90
10889;DHT22;5497;51.388;6.780;2023-05-07T06:17:14;18.80;99.90
10889;DHT22;5497;51.388;6.780;2023-05-07T06:19:41;18.80;99.90
10889;DHT22;5497;51.388;6.780;2023-05-07T06:22:09;18.80;99.90
10889;DHT22;5497;51.388;6.780;2023-05-07T06:24:37;18.60;99.90
10889;DHT22;5497;51.388;6.780;2023-05-07T06:29:33;18.30;99.90
10889;DHT22;5497;51.388;6.780;2023-05-07T06:34:38;18.30;99.90
10889;DHT22;5497;51.388;6.780;2023-05-07T06:37:06;18.40;99.90
10889;DHT22;5497;51.388;6.780;2023-05-07T06:44:56;18.40;99.90
10889;DHT22;5497;51.388;6.780;2023-05-07T06:47:23;18.50;99.90
10889;DHT22;5497;51.388;6.780;2023-05-07T06:49:53;18.60;99.90
10889;DHT22;5497;51.388;6.780;2023-05-07T06:54:52;18.80;99.90
10889;DHT22;5497;51.388;6.780;2023-05-07T06:57:21;19.00;99.90
10889;DHT22;5497;51.388;6.780;2023-05-07T06:59:48;19.20;99.90
10889;DHT22;5497;51.388;6.780;2023-05-07T07:02:19;19.50;99.90
10889;DHT22;5497;51.388;6.780;2023-05-07T07:09:49;20.10;99.90
10889;DHT22;5497;51.388;6.780;2023-05-07T07:12:18;20.50;99.90
10889;DHT22;5497;51.388;6.780;2023-05-07T07:17:16;21.20;99.90
10889;DHT22;5497;51.388;6.780;2023-05-07T07:22:12;21.80;99.90
10889;DHT22;5497;51.388;6.780;2023-05-07T07:24:40;19.40;99.90
10889;DHT22;5497;51.388;6.780;2023-05-07T07:27:09;21.50;99.90
10889;DHT22;5497;51.388;6.780;2023-05-07T07:32:04;21.70;99.90
10889;DHT22;5497;51.388;6.780;2023-05-07T07:34:32;22.00;99.90
10889;DHT22;5497;51.388;6.780;2023-05-07T07:37:00;22.80;99.90
10889;DHT22;5497;51.388;6.780;2023-05-07T07:39:32;23.00;99.90
10889;DHT22;5497;51.388;6.780;2023-05-07T07:42:00;24.20;99.90
10889;DHT22;5497;51.388;6.780;2023-05-07T07:44:28;25.80;99.90
10889;DHT22;5497;51.388;6.780;2023-05-07T07:47:00;25.90;99.90
10889;DHT22;5497;51.388;6.780;2023-05-07T07:49:27;25.80;99.90
10889;DHT22;5497;51.388;6.780;2023-05-07T07:51:56;25.60;99.90
10889;DHT22;5497;51.388;6.780;2023-05-07T07:54:25;26.50;99.90
10889;DHT22;5497;51.388;6.780;2023-05-07T07:57:04;26.80;99.90
10889;DHT22;5497;51.388;6.780;2023-05-07T07:59:53;27.10;99.90
10889;DHT22;5497;51.388;6.780;2023-05-07T08:02:24;27.70;99.90
10889;DHT22;5497;51.388;6.780;2023-05-07T08:04:52;28.80;99.90
10889;DHT22;5497;51.388;6.780;2023-05-07T08:07:22;29.00;99.90
10889;DHT22;5497;51.388;6.780;2023-05-07T08:09:50;29.90;99.90
10889;DHT22;5497;51.388;6.780;2023-05-07T08:12:22;30.40;99.90
10889;DHT22;5497;51.388;6.780;2023-05-07T08:14:49;30.90;99.90
10889;DHT22;5497;51.388;6.780;2023-05-07T08:17:17;30.80;99.90
10889;DHT22;5497;51.388;6.780;2023-05-07T08:19:46;30.50;99.90
10889;DHT22;5497;51.388;6.780;2023-05-07T08:22:14;31.10;99.90
10889;DHT22;5497;51.388;6.780;2023-05-07T08:24:43;31.30;99.90
10889;DHT22;5497;51.388;6.780;2023-05-07T08:27:10;31.10;99.90
10889;DHT22;5497;51.388;6.780;2023-05-07T08:29:41;30.50;99.90
10889;DHT22;5497;51.388;6.780;2023-05-07T08:32:08;30.30;99.90
10889;DHT22;5497;51.388;6.780;2023-05-07T08:34:36;29.90;99.90
10889;DHT22;5497;51.388;6.780;2023-05-07T08:37:05;29.20;99.90
10889;DHT22;5497;51.388;6.780;2023-05-07T08:39:33;28.80;99.90
10889;DHT22;5497;51.388;6.780;2023-05-07T08:42:01;28.90;99.90
10889;DHT22;5497;51.388;6.780;2023-05-07T08:44:34;30.10;99.90
10889;DHT22;5497;51.388;6.780;2023-05-07T08:47:03;30.30;99.90
10889;DHT22;5497;51.388;6.780;2023-05-07T08:49:34;30.40;99.90
10889;DHT22;5497;51.388;6.780;2023-05-07T08:52:02;30.80;99.90
10889;DHT22;5497;51.388;6.780;2023-05-07T08:54:29;31.20;99.90
10889;DHT22;5497;51.388;6.780;2023-05-07T08:56:59;31.30;99.90
10889;DHT22;5497;51.388;6.780;2023-05-07T08:59:27;31.40;99.90
10889;DHT22;5497;51.388;6.780;2023-05-07T09:01:54;31.60;99.90
10889;DHT22;5497;51.388;6.780;2023-05-07T09:04:22;30.50;99.90
10889;DHT22;5497;51.388;6.780;2023-05-07T09:06:50;30.50;99.90
10889;DHT22;5497;51.388;6.780;2023-05-07T09:09:18;30.40;99.90
10889;DHT22;5497;51.388;6.780;2023-05-07T09:11:45;30.40;99.90
10889;DHT22;5497;51.388;6.780;2023-05-07T09:16:44;32.00;99.90
10889;DHT22;5497;51.388;6.780;2023-05-07T09:19:13;33.00;99.90
10889;DHT22;5497;51.388;6.780;2023-05-07T09:21:45;33.80;99.90
10889;DHT22;5497;51.388;6.780;2023-05-07T09:24:15;34.00;99.50
10889;DHT22;5497;51.388;6.780;2023-05-07T09:26:42;33.80;98.10
10889;DHT22;5497;51.388;6.780;2023-05-07T09:29:10;32.30;97.40
10889;DHT22;5497;51.388;6.780;2023-05-07T09:31:38;33.00;97.10
10889;DHT22;5497;51.388;6.780;2023-05-07T09:34:07;32.20;96.30
10889;DHT22;5497;51.388;6.780;2023-05-07T09:36:35;31.40;96.50
10889;DHT22;5497;51.388;6.780;2023-05-07T09:39:05;31.10;97.20
10889;DHT22;5497;51.388;6.780;2023-05-07T09:41:33;31.00;96.80
10889;DHT22;5497;51.388;6.780;2023-05-07T09:44:14;32.40;97.80
10889;DHT22;5497;51.388;6.780;2023-05-07T09:46:46;30.90;97.00
10889;DHT22;5497;51.388;6.780;2023-05-07T09:49:22;31.10;97.80
10889;DHT22;5497;51.388;6.780;2023-05-07T09:51:56;31.40;96.50
10889;DHT22;5497;51.388;6.780;2023-05-07T09:54:27;30.70;95.20
10889;DHT22;5497;51.388;6.780;2023-05-07T09:56:55;30.70;95.00
10889;DHT22;5497;51.388;6.780;2023-05-07T09:59:27;30.40;95.30
10889;DHT22;5497;51.388;6.780;2023-05-07T10:01:56;30.10;95.20
10889;DHT22;5497;51.388;6.780;2023-05-07T10:04:23;29.90;95.30
10889;DHT22;5497;51.388;6.780;2023-05-07T10:06:52;29.90;95.10
10889;DHT22;5497;51.388;6.780;2023-05-07T10:09:19;29.60;94.80
10889;DHT22;5497;51.388;6.780;2023-05-07T10:11:48;29.50;95.40
10889;DHT22;5497;51.388;6.780;2023-05-07T10:16:43;29.70;95.40
10889;DHT22;5497;51.388;6.780;2023-05-07T10:19:14;29.90;96.00
10889;DHT22;5497;51.388;6.780;2023-05-07T10:21:48;29.90;94.80
10889;DHT22;5497;51.388;6.780;2023-05-07T10:26:58;29.20;94.60
10889;DHT22;5497;51.388;6.780;2023-05-07T10:29:29;29.00;95.30
10889;DHT22;5497;51.388;6.780;2023-05-07T10:31:58;29.00;95.40
10889;DHT22;5497;51.388;6.780;2023-05-07T10:34:29;29.10;95.60
10889;DHT22;5497;51.388;6.780;2023-05-07T10:36:59;29.00;95.10
10889;DHT22;5497;51.388;6.780;2023-05-07T10:39:26;28.70;95.10
10889;DHT22;5497;51.388;6.780;2023-05-07T10:41:53;28.30;95.00
10889;DHT22;5497;51.388;6.780;2023-05-07T10:44:27;28.40;95.50
10889;DHT22;5497;51.388;6.780;2023-05-07T10:47:04;28.40;96.00
10889;DHT22;5497;51.388;6.780;2023-05-07T10:49:31;28.60;95.60
10889;DHT22;5497;51.388;6.780;2023-05-07T10:52:12;28.70;95.60
10889;DHT22;5497;51.388;6.780;2023-05-07T10:54:44;29.00;96.00
10889;DHT22;5497;51.388;6.780;2023-05-07T10:59:56;29.30;95.80
10889;DHT22;5497;51.388;6.780;2023-05-07T11:05:19;29.50;94.80
10889;DHT22;5497;51.388;6.780;2023-05-07T11:07:53;29.90;94.60
10889;DHT22;5497;51.388;6.780;2023-05-07T11:10:20;29.30;94.60
10889;DHT22;5497;51.388;6.780;2023-05-07T11:12:54;29.40;94.80
10889;DHT22;5497;51.388;6.780;2023-05-07T11:15:42;29.40;94.00
10889;DHT22;5497;51.388;6.780;2023-05-07T11:18:46;29.20;93.80
10889;DHT22;5497;51.388;6.780;2023-05-07T11:21:12;29.00;94.20
10889;DHT22;5497;51.388;6.780;2023-05-07T11:23:56;29.00;94.60
10889;DHT22;5497;51.388;6.780;2023-05-07T11:26:30;29.00;94.20
10889;DHT22;5497;51.388;6.780;2023-05-07T11:28:58;28.90;94.70
10889;DHT22;5497;51.388;6.780;2023-05-07T11:31:28;28.60;94.40
10889;DHT22;5497;51.388;6.780;2023-05-07T11:33:57;28.30;94.50
10889;DHT22;5497;51.388;6.780;2023-05-07T11:36:25;28.00;94.00
10889;DHT22;5497;51.388;6.780;2023-05-07T11:38:54;27.70;94.40
10889;DHT22;5497;51.388;6.780;2023-05-07T11:41:21;27.70;95.00
10889;DHT22;5497;51.388;6.780;2023-05-07T11:43:55;27.70;95.30
10889;DHT22;5497;51.388;6.780;2023-05-07T11:46:23;27.60;95.10
10889;DHT22;5497;51.388;6.780;2023-05-07T11:48:51;27.50;96.00
10889;DHT22;5497;51.388;6.780;2023-05-07T11:51:19;27.60;96.60
10889;DHT22;5497;51.388;6.780;2023-05-07T11:53:46;27.30;95.20
10889;DHT22;5497;51.388;6.780;2023-05-07T11:56:17;27.10;95.60
10889;DHT22;5497;51.388;6.780;2023-05-07T11:58:45;26.90;95.80
10889;DHT22;5497;51.388;6.780;2023-05-07T12:01:12;26.30;95.90
10889;DHT22;5497;51.388;6.780;2023-05-07T12:03:41;26.10;96.60
10889;DHT22;5497;51.388;6.780;2023-05-07T12:06:15;25.80;96.30
10889;DHT22;5497;51.388;6.780;2023-05-07T12:08:43;25.60;96.90
10889;DHT22;5497;51.388;6.780;2023-05-07T12:11:12;25.60;97.70
10889;DHT22;5497;51.388;6.780;2023-05-07T12:13:40;25.60;97.60
10889;DHT22;5497;51.388;6.780;2023-05-07T12:16:07;25.60;97.50
10889;DHT22;5497;51.388;6.780;2023-05-07T12:18:35;25.80;98.40
10889;DHT22;5497;51.388;6.780;2023-05-07T12:21:02;26.00;98.00
10889;DHT22;5497;51.388;6.780;2023-05-07T12:23:33;26.00;98.10
10889;DHT22;5497;51.388;6.780;2023-05-07T12:26:00;26.10;98.00
10889;DHT22;5497;51.388;6.780;2023-05-07T12:28:29;26.10;98.40
10889;DHT22;5497;51.388;6.780;2023-05-07T12:30:56;26.20;98.60
10889;DHT22;5497;51.388;6.780;2023-05-07T12:33:24;26.20;98.40
10889;DHT22;5497;51.388;6.780;2023-05-07T12:35:53;26.10;98.10
10889;DHT22;5497;51.388;6.780;2023-05-07T12:38:20;25.90;97.90
10889;DHT22;5497;51.388;6.780;2023-05-07T12:40:49;25.90;98.10
10889;DHT22;5497;51.388;6.780;2023-05-07T12:43:17;25.50;98.10
10889;DHT22;5497;51.388;6.780;2023-05-07T12:45:46;24.90;98.10
10889;DHT22;5497;51.388;6.780;2023-05-07T12:48:13;24.80;98.70
10889;DHT22;5497;51.388;6.780;2023-05-07T12:50:41;24.50;98.80
10889;DHT22;5497;51.388;6.780;2023-05-07T12:53:10;24.50;98.90
10889;DHT22;5497;51.388;6.780;2023-05-07T12:55:41;24.50;98.90
10889;DHT22;5497;51.388;6.780;2023-05-07T12:58:09;24.40;99.60
10889;DHT22;5497;51.388;6.780;2023-05-07T13:00:41;24.40;99.80
10889;DHT22;5497;51.388;6.780;2023-05-07T13:03:08;24.40;99.80
10889;DHT22;5497;51.388;6.780;2023-05-07T13:05:36;24.40;99.50
10889;DHT22;5497;51.388;6.780;2023-05-07T13:08:03;24.30;99.90
10889;DHT22;5497;51.388;6.780;2023-05-07T13:10:31;24.20;99.90
10889;DHT22;5497;51.388;6.780;2023-05-07T13:13:01;24.20;99.90
10889;DHT22;5497;51.388;6.780;2023-05-07T13:15:29;24.10;99.90
10889;DHT22;5497;51.388;6.780;2023-05-07T13:17:57;24.00;99.90
10889;DHT22;5497;51.388;6.780;2023-05-07T13:20:25;23.80;99.90
10889;DHT22;5497;51.388;6.780;2023-05-07T13:22:52;23.60;99.90
10889;DHT22;5497;51.388;6.780;2023-05-07T13:25:19;23.30;99.90
10889;DHT22;5497;51.388;6.780;2023-05-07T13:27:46;23.10;99.90
10889;DHT22;5497;51.388;6.780;2023-05-07T13:30:14;23.10;99.90
10889;DHT22;5497;51.388;6.780;2023-05-07T13:32:42;23.00;99.90
10889;DHT22;5497;51.388;6.780;2023-05-07T13:35:11;22.80;99.90
10889;DHT22;5497;51.388;6.780;2023-05-07T13:37:39;22.70;99.90
10889;DHT22;5497;51.388;6.780;2023-05-07T13:40:06;22.70;99.90
10889;DHT22;5497;51.388;6.780;2023-05-07T13:42:37;22.70;99.90
10889;DHT22;5497;51.388;6.780;2023-05-07T13:45:04;22.60;99.90
10889;DHT22;5497;51.388;6.780;2023-05-07T13:47:31;22.50;99.90
10889;DHT22;5497;51.388;6.780;2023-05-07T13:50:02;22.40;99.90
10889;DHT22;5497;51.388;6.780;2023-05-07T13:52:29;22.30;99.90
10889;DHT22;5497;51.388;6.780;2023-05-07T13:54:56;21.90;99.90
10889;DHT22;5497;51.388;6.780;2023-05-07T13:57:24;21.80;99.90
10889;DHT22;5497;51.388;6.780;2023-05-07T13:59:51;21.60;99.90
10889;DHT22;5497;51.388;6.780;2023-05-07T14:02:18;21.50;99.90
10889;DHT22;5497;51.388;6.780;2023-05-07T14:04:48;21.30;99.90
10889;DHT22;5497;51.388;6.780;2023-05-07T14:07:16;21.30;99.90
10889;DHT22;5497;51.388;6.780;2023-05-07T14:09:44;21.20;99.90
10889;DHT22;5497;51.388;6.780;2023-05-07T14:12:11;21.10;99.90
10889;DHT22;5497;51.388;6.780;2023-05-07T14:14:39;20.90;99.90
10889;DHT22;5497;51.388;6.780;2023-05-07T14:17:13;20.90;99.90
10889;DHT22;5497;51.388;6.780;2023-05-07T14:19:46;20.80;99.90
10889;DHT22;5497;51.388;6.780;2023-05-07T14:22:13;20.70;99.90
10889;DHT22;5497;51.388;6.780;2023-05-07T14:24:42;20.60;99.90
10889;DHT22;5497;51.388;6.780;2023-05-07T14:27:09;20.60;99.90
10889;DHT22;5497;51.388;6.780;2023-05-07T14:29:37;20.30;99.90
10889;DHT22;5497;51.388;6.780;2023-05-07T14:32:04;20.20;99.90
10889;DHT22;5497;51.388;6.780;2023-05-07T14:34:32;20.20;99.90
10889;DHT22;5497;51.388;6.780;2023-05-07T14:37:00;20.30;99.90
10889;DHT22;5497;51.388;6.780;2023-05-07T14:39:27;20.30;99.90
10889;DHT22;5497;51.388;6.780;2023-05-07T14:41:56;20.50;99.90
10889;DHT22;5497;51.388;6.780;2023-05-07T14:44:23;20.80;99.90
10889;DHT22;5497;51.388;6.780;2023-05-07T14:46:51;20.80;99.90
10889;DHT22;5497;51.388;6.780;2023-05-07T14:49:22;21.10;99.90
10889;DHT22;5497;51.388;6.780;2023-05-07T14:51:52;21.50;99.90
10889;DHT22;5497;51.388;6.780;2023-05-07T14:54:19;21.50;99.90
10889;DHT22;5497;51.388;6.780;2023-05-07T14:56:46;21.50;99.90
10889;DHT22;5497;51.388;6.780;2023-05-07T14:59:14;21.50;99.90
10889;DHT22;5497;51.388;6.780;2023-05-07T15:01:42;21.40;99.90
10889;DHT22;5497;51.388;6.780;2023-05-07T15:04:10;21.40;99.90
10889;DHT22;5497;51.388;6.780;2023-05-07T15:06:37;21.40;99.90
10889;DHT22;5497;51.388;6.780;2023-05-07T15:09:05;21.50;99.90
10889;DHT22;5497;51.388;6.780;2023-05-07T15:11:34;21.50;99.90
10889;DHT22;5497;51.388;6.780;2023-05-07T15:14:03;21.40;99.90
10889;DHT22;5497;51.388;6.780;2023-05-07T15:16:31;21.40;99.90
10889;DHT22;5497;51.388;6.780;2023-05-07T15:18:58;21.40;99.90
10889;DHT22;5497;51.388;6.780;2023-05-07T15:21:25;21.40;99.90
10889;DHT22;5497;51.388;6.780;2023-05-07T15:23:53;21.20;99.90
10889;DHT22;5497;51.388;6.780;2023-05-07T15:26:20;21.00;99.90
10889;DHT22;5497;51.388;6.780;2023-05-07T15:28:48;20.90;99.90
10889;DHT22;5497;51.388;6.780;2023-05-07T15:31:15;20.80;99.90
10889;DHT22;5497;51.388;6.780;2023-05-07T15:33:44;20.60;99.90
10889;DHT22;5497;51.388;6.780;2023-05-07T15:36:11;20.20;99.90
10889;DHT22;5497;51.388;6.780;2023-05-07T15:38:38;19.90;99.90
10889;DHT22;5497;51.388;6.780;2023-05-07T15:41:06;19.50;99.90
10889;DHT22;5497;51.388;6.780;2023-05-07T15:43:33;19.10;99.90
10889;DHT22;5497;51.388;6.780;2023-05-07T15:46:01;19.00;99.90
10889;DHT22;5497;51.388;6.780;2023-05-07T15:48:28;19.30;99.90
10889;DHT22;5497;51.388;6.780;2023-05-07T15:50:57;18.80;99.90
10889;DHT22;5497;51.388;6.780;2023-05-07T15:53:25;18.80;99.90
10889;DHT22;5497;51.388;6.780;2023-05-07T15:55:52;18.80;99.90
10889;DHT22;5497;51.388;6.780;2023-05-07T15:58:19;18.90;99.90
10889;DHT22;5497;51.388;6.780;2023-05-07T16:00:47;19.10;99.90
10889;DHT22;5497;51.388;6.780;2023-05-07T16:03:14;19.30;99.90
10889;DHT22;5497;51.388;6.780;2023-05-07T16:05:43;19.80;99.90
10889;DHT22;5497;51.388;6.780;2023-05-07T16:08:11;19.80;99.90
10889;DHT22;5497;51.388;6.780;2023-05-07T16:10:38;20.00;99.90
10889;DHT22;5497;51.388;6.780;2023-05-07T16:13:06;20.20;99.90
10889;DHT22;5497;51.388;6.780;2023-05-07T16:15:33;20.40;99.90
10889;DHT22;5497;51.388;6.780;2023-05-07T16:18:00;20.40;99.90
10889;DHT22;5497;51.388;6.780;2023-05-07T16:20:28;20.40;99.90
10889;DHT22;5497;51.388;6.780;2023-05-07T16:22:58;20.40;99.90
10889;DHT22;5497;51.388;6.780;2023-05-07T16:25:27;20.60;99.90
10889;DHT22;5497;51.388;6.780;2023-05-07T16:27:54;20.60;99.90
10889;DHT22;5497;51.388;6.780;2023-05-07T16:30:21;20.60;99.90
10889;DHT22;5497;51.388;6.780;2023-05-07T16:32:48;20.60;99.90
10889;DHT22;5497;51.388;6.780;2023-05-07T16:35:15;21.60;99.90
10889;DHT22;5497;51.388;6.780;2023-05-07T16:37:42;20.60;99.90
10889;DHT22;5497;51.388;6.780;2023-05-07T16:40:09;20.50;99.90
10889;DHT22;5497;51.388;6.780;2023-05-07T16:42:37;20.50;99.90
10889;DHT22;5497;51.388;6.780;2023-05-07T16:45:04;20.40;99.90
10889;DHT22;5497;51.388;6.780;2023-05-07T16:47:31;20.40;99.90
10889;DHT22;5497;51.388;6.780;2023-05-07T16:49:58;20.40;99.90
10889;DHT22;5497;51.388;6.780;2023-05-07T16:52:25;20.40;99.90
10889;DHT22;5497;51.388;6.780;2023-05-07T16:54:52;20.30;99.90
10889;DHT22;5497;51.388;6.780;2023-05-07T16:57:22;20.30;99.90
10889;DHT22;5497;51.388;6.780;2023-05-07T16:59:50;20.40;99.90
10889;DHT22;5497;51.388;6.780;2023-05-07T17:02:18;20.60;99.90
10889;DHT22;5497;51.388;6.780;2023-05-07T17:04:44;20.60;99.90
10889;DHT22;5497;51.388;6.780;2023-05-07T17:07:11;20.70;99.90
10889;DHT22;5497;51.388;6.780;2023-05-07T17:09:39;20.70;99.90
10889;DHT22;5497;51.388;6.780;2023-05-07T17:12:06;20.60;99.90
10889;DHT22;5497;51.388;6.780;2023-05-07T17:14:32;20.60;99.90
10889;DHT22;5497;51.388;6.780;2023-05-07T17:17:00;20.50;99.90
10889;DHT22;5497;51.388;6.780;2023-05-07T17:19:27;20.50;99.90
10889;DHT22;5497;51.388;6.780;2023-05-07T17:21:54;20.40;99.90
10889;DHT22;5497;51.388;6.780;2023-05-07T17:24:21;20.40;99.90
10889;DHT22;5497;51.388;6.780;2023-05-07T17:26:47;20.40;99.90
10889;DHT22;5497;51.388;6.780;2023-05-07T17:29:15;20.30;99.90
10889;DHT22;5497;51.388;6.780;2023-05-07T17:31:44;20.30;99.90
10889;DHT22;5497;51.388;6.780;2023-05-07T17:34:12;20.30;99.90
10889;DHT22;5497;51.388;6.780;2023-05-07T17:36:39;20.20;99.90
10889;DHT22;5497;51.388;6.780;2023-05-07T17:39:07;20.10;99.90
10889;DHT22;5497;51.388;6.780;2023-05-07T17:41:34;21.70;99.90
10889;DHT22;5497;51.388;6.780;2023-05-07T17:44:02;20.10;99.90
10889;DHT22;5497;51.388;6.780;2023-05-07T17:46:28;20.00;99.90
10889;DHT22;5497;51.388;6.780;2023-05-07T17:48:55;19.90;99.90
10889;DHT22;5497;51.388;6.780;2023-05-07T17:51:24;19.90;99.90
10889;DHT22;5497;51.388;6.780;2023-05-07T17:53:53;19.80;99.90
10889;DHT22;5497;51.388;6.780;2023-05-07T17:56:20;19.70;99.90
10889;DHT22;5497;51.388;6.780;2023-05-07T17:58:47;19.40;99.90
10889;DHT22;5497;51.388;6.780;2023-05-07T18:01:13;21.30;99.90
10889;DHT22;5497;51.388;6.780;2023-05-07T18:03:40;19.90;99.90
10889;DHT22;5497;51.388;6.780;2023-05-07T18:06:07;19.20;99.90
10889;DHT22;5497;51.388;6.780;2023-05-07T18:08:35;19.20;99.90
10889;DHT22;5497;51.388;6.780;2023-05-07T18:11:02;19.10;99.90
10889;DHT22;5497;51.388;6.780;2023-05-07T18:13:31;19.10;99.90
10889;DHT22;5497;51.388;6.780;2023-05-07T18:15:58;19.00;99.90
10889;DHT22;5497;51.388;6.780;2023-05-07T18:18:25;19.00;99.90
10889;DHT22;5497;51.388;6.780;2023-05-07T18:20:55;19.00;99.90
10889;DHT22;5497;51.388;6.780;2023-05-07T18:23:21;18.90;99.90
10889;DHT22;5497;51.388;6.780;2023-05-07T18:25:50;18.90;99.90
10889;DHT22;5497;51.388;6.780;2023-05-07T18:28:17;18.90;99.90
10889;DHT22;5497;51.388;6.780;2023-05-07T18:30:43;18.90;99.90
10889;DHT22;5497;51.388;6.780;2023-05-07T18:33:12;18.90;99.90
10889;DHT22;5497;51.388;6.780;2023-05-07T18:35:38;18.80;99.90
10889;DHT22;5497;51.388;6.780;2023-05-07T18:40:39;18.70;99.90
10889;DHT22;5497;51.388;6.780;2023-05-07T18:43:10;18.60;99.90
10889;DHT22;5497;51.388;6.780;2023-05-07T18:45:37;18.50;99.90
10889;DHT22;5497;51.388;6.780;2023-05-07T18:48:04;18.50;99.90
10889;DHT22;5497;51.388;6.780;2023-05-07T18:50:34;18.40;99.90
10889;DHT22;5497;51.388;6.780;2023-05-07T18:53:01;18.20;99.90
10889;DHT22;5497;51.388;6.780;2023-05-07T18:55:28;18.20;99.90
10889;DHT22;5497;51.388;6.780;2023-05-07T18:57:56;18.00;99.90
10889;DHT22;5497;51.388;6.780;2023-05-07T19:00:25;18.00;99.90
10889;DHT22;5497;51.388;6.780;2023-05-07T19:02:52;17.80;99.90
10889;DHT22;5497;51.388;6.780;2023-05-07T19:05:19;17.70;99.90
10889;DHT22;5497;51.388;6.780;2023-05-07T19:07:52;17.70;99.90
10889;DHT22;5497;51.388;6.780;2023-05-07T19:10:20;17.70;99.90
10889;DHT22;5497;51.388;6.780;2023-05-07T19:12:48;17.60;99.90
10889;DHT22;5497;51.388;6.780;2023-05-07T19:15:19;17.60;99.90
10889;DHT22;5497;51.388;6.780;2023-05-07T19:17:49;17.60;99.90
10889;DHT22;5497;51.388;6.780;2023-05-07T19:20:17;17.60;99.90
10889;DHT22;5497;51.388;6.780;2023-05-07T19:22:44;17.60;99.90
10889;DHT22;5497;51.388;6.780;2023-05-07T19:25:12;17.60;99.90
10889;DHT22;5497;51.388;6.780;2023-05-07T19:27:42;17.50;99.90
10889;DHT22;5497;51.388;6.780;2023-05-07T19:30:09;17.60;99.90
10889;DHT22;5497;51.388;6.780;2023-05-07T19:32:45;17.50;99.90
10889;DHT22;5497;51.388;6.780;2023-05-07T19:35:29;17.50;99.90
10889;DHT22;5497;51.388;6.780;2023-05-07T19:37:58;17.50;99.90
10889;DHT22;5497;51.388;6.780;2023-05-07T19:40:25;17.40;99.90
10889;DHT22;5497;51.388;6.780;2023-05-07T19:42:54;17.40;99.90
10889;DHT22;5497;51.388;6.780;2023-05-07T19:45:22;17.40;99.90
10889;DHT22;5497;51.388;6.780;2023-05-07T19:47:56;17.30;99.90
10889;DHT22;5497;51.388;6.780;2023-05-07T19:50:23;17.30;99.90
10889;DHT22;5497;51.388;6.780;2023-05-07T19:52:52;17.30;99.90
10889;DHT22;5497;51.388;6.780;2023-05-07T19:55:19;17.30;99.90
10889;DHT22;5497;51.388;6.780;2023-05-07T19:57:47;17.20;99.90
10889;DHT22;5497;51.388;6.780;2023-05-07T20:00:14;17.30;99.90
10889;DHT22;5497;51.388;6.780;2023-05-07T20:02:42;17.20;99.90
10889;DHT22;5497;51.388;6.780;2023-05-07T20:05:15;17.20;99.90
10889;DHT22;5497;51.388;6.780;2023-05-07T20:07:43;17.10;99.90
10889;DHT22;5497;51.388;6.780;2023-05-07T20:10:12;17.10;99.90
10889;DHT22;5497;51.388;6.780;2023-05-07T20:12:39;17.10;99.90
10889;DHT22;5497;51.388;6.780;2023-05-07T20:15:06;17.00;99.90
10889;DHT22;5497;51.388;6.780;2023-05-07T20:17:33;17.00;99.90
10889;DHT22;5497;51.388;6.780;2023-05-07T20:20:04;16.80;99.90
10889;DHT22;5497;51.388;6.780;2023-05-07T20:22:32;16.80;99.90
10889;DHT22;5497;51.388;6.780;2023-05-07T20:24:59;16.60;99.90
10889;DHT22;5497;51.388;6.780;2023-05-07T20:27:27;16.60;99.90
10889;DHT22;5497;51.388;6.780;2023-05-07T20:29:54;16.60;99.90
10889;DHT22;5497;51.388;6.780;2023-05-07T20:32:22;16.50;99.90
10889;DHT22;5497;51.388;6.780;2023-05-07T20:34:49;16.40;99.90
10889;DHT22;5497;51.388;6.780;2023-05-07T20:37:16;16.40;99.90
10889;DHT22;5497;51.388;6.780;2023-05-07T20:39:43;16.30;99.90
10889;DHT22;5497;51.388;6.780;2023-05-07T20:42:10;16.30;99.90